Map

Track Data

SID SEASON NUMBER BASIN SUBBASIN NAME ISO_TIME NATURE LAT LON WMO_WIND WMO_PRES WMO_AGENCY TRACK_TYPE DIST2LAND LANDFALL IFLAG USA_AGENCY USA_ATCF_ID USA_LAT USA_LON USA_RECORD USA_STATUS USA_WIND USA_PRES USA_SSHS USA_R34_NE USA_R34_SE USA_R34_SW USA_R34_NW USA_R50_NE USA_R50_SE USA_R50_SW USA_R50_NW USA_R64_NE USA_R64_SE USA_R64_SW USA_R64_NW USA_POCI USA_ROCI USA_RMW USA_EYE TOKYO_LAT TOKYO_LON TOKYO_GRADE TOKYO_WIND TOKYO_PRES TOKYO_R50_DIR TOKYO_R50_LONG TOKYO_R50_SHORT TOKYO_R30_DIR TOKYO_R30_LONG TOKYO_R30_SHORT TOKYO_LAND CMA_LAT CMA_LON CMA_CAT CMA_WIND CMA_PRES HKO_LAT HKO_LON HKO_CAT HKO_WIND HKO_PRES NEWDELHI_LAT NEWDELHI_LON NEWDELHI_GRADE NEWDELHI_WIND NEWDELHI_PRES NEWDELHI_CI NEWDELHI_DP NEWDELHI_POCI REUNION_LAT REUNION_LON REUNION_TYPE REUNION_WIND REUNION_PRES REUNION_TNUM REUNION_CI REUNION_RMW REUNION_R34_NE REUNION_R34_SE REUNION_R34_SW REUNION_R34_NW REUNION_R50_NE REUNION_R50_SE REUNION_R50_SW REUNION_R50_NW REUNION_R64_NE REUNION_R64_SE REUNION_R64_SW REUNION_R64_NW BOM_LAT BOM_LON BOM_TYPE BOM_WIND BOM_PRES BOM_TNUM BOM_CI BOM_RMW BOM_R34_NE BOM_R34_SE BOM_R34_SW BOM_R34_NW BOM_R50_NE BOM_R50_SE BOM_R50_SW BOM_R50_NW BOM_R64_NE BOM_R64_SE BOM_R64_SW BOM_R64_NW BOM_ROCI BOM_POCI BOM_EYE BOM_POS_METHOD BOM_PRES_METHOD NADI_LAT NADI_LON NADI_CAT NADI_WIND NADI_PRES WELLINGTON_LAT WELLINGTON_LON WELLINGTON_WIND WELLINGTON_PRES DS824_LAT DS824_LON DS824_STAGE DS824_WIND DS824_PRES TD9636_LAT TD9636_LON TD9636_STAGE TD9636_WIND TD9636_PRES TD9635_LAT TD9635_LON TD9635_WIND TD9635_PRES TD9635_ROCI NEUMANN_LAT NEUMANN_LON NEUMANN_CLASS NEUMANN_WIND NEUMANN_PRES MLC_LAT MLC_LON MLC_CLASS MLC_WIND MLC_PRES USA_GUST BOM_GUST BOM_GUST_PER REUNION_GUST REUNION_GUST_PER USA_SEAHGT USA_SEARAD_NE USA_SEARAD_SE USA_SEARAD_SW USA_SEARAD_NW STORM_SPEED STORM_DIR
1939042S06048 1939 15 SI MM NOT_NAMED 1939-02-11 06:00:00 NR -6.40000 48.3000 reunion main 646 635 _____O________ -1 -6.40000 48.3000 99 9.90000 2 191
1939042S06048 1939 15 SI MM NOT_NAMED 1939-02-11 09:00:00 NR -6.47756 48.2880 main 635 623 _____P________ -1 -6.47756 48.2880 99 2 197
1939042S06048 1939 15 SI MM NOT_NAMED 1939-02-11 12:00:00 NR -6.56083 48.2713 main 623 623 _____P________ -1 -6.56083 48.2713 99 2 191
1939042S06048 1939 15 SI MM NOT_NAMED 1939-02-11 15:00:00 NR -6.65551 48.2449 main 614 603 _____P________ -1 -6.65551 48.2449 99 2 198
1939042S06048 1939 15 SI MM NOT_NAMED 1939-02-11 18:00:00 NR -6.76731 48.2041 main 603 592 _____P________ -1 -6.76731 48.2041 99 3 202
1939042S06048 1939 15 SI MM NOT_NAMED 1939-02-11 21:00:00 NR -6.90195 48.1441 main 594 572 _____P________ -1 -6.90195 48.1441 99 3 206
1939042S06048 1939 15 SI MM NOT_NAMED 1939-02-12 00:00:00 NR -7.06514 48.0600 main 572 553 _____P________ -1 -7.06514 48.0600 99 4 208
1939042S06048 1939 15 SI MM NOT_NAMED 1939-02-12 03:00:00 NR -7.26259 47.9469 main 556 537 _____P________ -1 -7.26259 47.9469 99 5 211
1939042S06048 1939 15 SI MM NOT_NAMED 1939-02-12 06:00:00 NR -7.50000 47.8000 reunion main 537 512 _____O________ -1 -7.50000 47.8000 99 9.90000 6 212
1939042S06048 1939 15 SI MM NOT_NAMED 1939-02-12 09:00:00 NR -7.78068 47.6160 main 512 489 _____P________ -1 -7.78068 47.6160 99 7 214
1939042S06048 1939 15 SI MM NOT_NAMED 1939-02-12 12:00:00 NR -8.09839 47.3987 main 489 468 _____P________ -1 -8.09839 47.3987 99 8 215
1939042S06048 1939 15 SI MM NOT_NAMED 1939-02-12 15:00:00 NR -8.44453 47.1535 main 468 447 _____P________ -1 -8.44453 47.1535 99 9 215
1939042S06048 1939 15 SI MM NOT_NAMED 1939-02-12 18:00:00 NR -8.81045 46.8857 main 447 431 _____P________ -1 -8.81045 46.8857 99 9 216
1939042S06048 1939 15 SI MM NOT_NAMED 1939-02-12 21:00:00 NR -9.18754 46.6010 main 431 422 _____P________ -1 -9.18754 46.6010 99 10 217
1939042S06048 1939 15 SI MM NOT_NAMED 1939-02-13 00:00:00 NR -9.56721 46.3047 main 422 414 _____P________ -1 -9.56721 46.3047 99 10 218
1939042S06048 1939 15 SI MM NOT_NAMED 1939-02-13 03:00:00 NR -9.94087 46.0026 main 422 414 _____P________ -1 -9.94087 46.0026 99 9 219
1939042S06048 1939 15 SI MM NOT_NAMED 1939-02-13 06:00:00 NR -10.3000 45.7000 reunion main 418 411 _____O________ -1 -10.3000 45.7000 99 9.90000 9 220
1939042S06048 1939 15 SI MM NOT_NAMED 1939-02-13 09:00:00 NR -10.6085 45.4326 main 427 421 _____P________ -1 -10.6085 45.4326 99 8 221
1939042S06048 1939 15 SI MM NOT_NAMED 1939-02-13 12:00:00 NR -10.9063 45.1625 main 429 428 _____P________ -1 -10.9063 45.1625 99 8 222
1939042S06048 1939 15 SI MM NOT_NAMED 1939-02-13 15:00:00 NR -11.1957 44.8881 main 429 429 _____P________ -1 -11.1957 44.8881 99 8 224
1939042S06048 1939 15 SI MM NOT_NAMED 1939-02-13 18:00:00 NR -11.4791 44.6081 main 434 404 _____P________ -1 -11.4791 44.6081 99 8 225
1939042S06048 1939 15 SI MM NOT_NAMED 1939-02-13 21:00:00 NR -11.7589 44.3208 main 403 370 _____P________ -1 -11.7589 44.3208 99 8 226
1939042S06048 1939 15 SI MM NOT_NAMED 1939-02-14 00:00:00 NR -12.0374 44.0247 main 370 338 _____P________ -1 -12.0374 44.0247 99 8 227
1939042S06048 1939 15 SI MM NOT_NAMED 1939-02-14 03:00:00 NR -12.3170 43.7183 main 338 304 _____P________ -1 -12.3170 43.7183 99 8 227
1939042S06048 1939 15 SI MM NOT_NAMED 1939-02-14 06:00:00 NR -12.6000 43.4000 reunion main 304 271 _____O________ -1 -12.6000 43.4000 99 9.90000 9 228
1939042S06048 1939 15 SI MM NOT_NAMED 1939-02-14 09:00:00 NR -12.9109 43.0506 main 271 228 _____P________ -1 -12.9109 43.0506 99 9 228
1939042S06048 1939 15 SI MM NOT_NAMED 1939-02-14 12:00:00 NR -13.2258 42.6866 main 228 184 _____P________ -1 -13.2258 42.6866 99 10 229
1939042S06048 1939 15 SI MM NOT_NAMED 1939-02-14 15:00:00 NR -13.5411 42.3134 main 184 151 _____P________ -1 -13.5411 42.3134 99 10 229
1939042S06048 1939 15 SI MM NOT_NAMED 1939-02-14 18:00:00 NR -13.8533 41.9364 main 136 97 _____P________ -1 -13.8533 41.9364 99 10 230
1939042S06048 1939 15 SI MM NOT_NAMED 1939-02-14 21:00:00 NR -14.1588 41.5610 main 92 44 _____P________ -1 -14.1588 41.5610 99 9 230
1939042S06048 1939 15 SI MM NOT_NAMED 1939-02-15 00:00:00 NR -14.4540 41.1928 main 43 10 _____P________ -1 -14.4540 41.1928 99 9 231
1939042S06048 1939 15 SI MM NOT_NAMED 1939-02-15 03:00:00 NR -14.7356 40.8372 main 0 0 _____P________ -1 -14.7356 40.8372 99 9 231
1939042S06048 1939 15 SI MM NOT_NAMED 1939-02-15 06:00:00 NR -15.0000 40.5000 reunion main 0 0 _____O________ -1 -15.0000 40.5000 99 9.90000 8 231
1939042S06048 1939 15 SI MM NOT_NAMED 1939-02-15 09:00:00 NR -15.2521 40.1769 main 0 0 _____P________ -1 -15.2521 40.1769 99 8 231
1939042S06048 1939 15 SI MM NOT_NAMED 1939-02-15 12:00:00 NR -15.4894 39.8681 main 0 0 _____P________ -1 -15.4894 39.8681 99 7 232
1939042S06048 1939 15 SI MM NOT_NAMED 1939-02-15 15:00:00 NR -15.7118 39.5752 main 0 0 _____P________ -1 -15.7118 39.5752 99 7 232
1939042S06048 1939 15 SI MM NOT_NAMED 1939-02-15 18:00:00 NR -15.9194 39.2995 main 0 0 _____P________ -1 -15.9194 39.2995 99 7 232
1939042S06048 1939 15 SI MM NOT_NAMED 1939-02-15 21:00:00 NR -16.1120 39.0426 main 0 0 _____P________ -1 -16.1120 39.0426 99 6 232
1939042S06048 1939 15 SI MM NOT_NAMED 1939-02-16 00:00:00 NR -16.2897 38.8060 main 0 0 _____P________ -1 -16.2897 38.8060 99 6 232
1939042S06048 1939 15 SI MM NOT_NAMED 1939-02-16 03:00:00 NR -16.4524 38.5913 main 0 0 _____P________ -1 -16.4524 38.5913 99 5 232
1939042S06048 1939 15 SI MM NOT_NAMED 1939-02-16 06:00:00 NR -16.6000 38.4000 reunion main 0 0 _____O________ -1 -16.6000 38.4000 99 9.90000 4 231
1939042S06048 1939 15 SI MM NOT_NAMED 1939-02-16 09:00:00 NR -16.7329 38.2328 main 0 0 _____P________ -1 -16.7329 38.2328 99 4 230
1939042S06048 1939 15 SI MM NOT_NAMED 1939-02-16 12:00:00 NR -16.8526 38.0875 main 0 0 _____P________ -1 -16.8526 38.0875 99 3 229
1939042S06048 1939 15 SI MM NOT_NAMED 1939-02-16 15:00:00 NR -16.9610 37.9609 main 0 0 _____P________ -1 -16.9610 37.9609 99 3 227
1939042S06048 1939 15 SI MM NOT_NAMED 1939-02-16 18:00:00 NR -17.0600 37.8499 main 0 0 _____P________ -1 -17.0600 37.8499 99 3 227
1939042S06048 1939 15 SI MM NOT_NAMED 1939-02-16 21:00:00 NR -17.1516 37.7515 main 0 0 _____P________ -1 -17.1516 37.7515 99 3 225
1939042S06048 1939 15 SI MM NOT_NAMED 1939-02-17 00:00:00 NR -17.2375 37.6625 main 0 0 _____P________ -1 -17.2375 37.6625 99 2 224
1939042S06048 1939 15 SI MM NOT_NAMED 1939-02-17 03:00:00 NR -17.3197 37.5797 main 0 0 _____P________ -1 -17.3197 37.5797 99 2 223
1939042S06048 1939 15 SI MM NOT_NAMED 1939-02-17 06:00:00 NR -17.4000 37.5000 reunion main 0 _____O________ -1 -17.4000 37.5000 99 9.90000 2 224

About IBTrACS Database

This database is a web-friendly format of International Best Track Archive for Climate Stewardship (IBTrACS), a global best track data archive curated by NOAA dating back to 1842.

Updated: 2021-10-08